Childress, TX

10:33 AM CDT on September 21, 2014 (GMT -0500)
WT_Meso 2NNE Childress | Change Station
CLOSE
Current Station
Personal Weather Station
Location: Childress, TX
Elevation: 1942 ft
Nearby Weather Stations

Elev 1942 ft 34.46 °N, 100.20 °W | Updated 38 minutes ago

Clear
Clear
78 °F
Feels Like 80 °F
N
2
Wind Variable Wind from NE
Gusts 3.0 mph

Today
High -- | Low -- °F
--% Chance of Precip.
Yesterday
High -- | Low -- °F
Precip. -- in
7:27 AM 7:38 PM
Waning Crescent, 6% visible
Pressure 30.11 in
Visibility 10.0 miles
Clouds Clear
Heat Index 80 °F
Dew Point 71 °F
Humidity 84%
Rainfall -999.00 in
Snow Depth Not available.
UV 3 out of 12
Pollen 8.40 out of 12
Air Quality Not available.
Flu Activity Not available.
METAR KCDS 211453Z AUTO VRB03KT 10SM CLR 26/22 A3018 RMK AO2 SLP194 T02560217 51014

More Conditions Fewer Conditions

Pressure 30.11 in
Visibility 10.0 miles
Clouds Clear
Heat Index 80 °F
Dew Point 71 °F
Humidity 84%
Rainfall -999.00 in
Snow Depth Not available.
UV 3 out of 12
Pollen 8.40 out of 12
Air Quality Not available.
Flu Activity Not available.
METAR KCDS 211453Z AUTO VRB03KT 10SM CLR 26/22 A3018 RMK AO2 SLP194 T02560217 51014

More Conditions Fewer Conditions

10-Day Weather Forecast

Almanac

Astronomy

Sep. 21, 2014 Rise Set
Actual Time 7:27 AM CDT 7:38 PM CDT
Civil Twilight 7:02 AM CDT 8:03 PM CDT
Nautical Twilight 6:33 AM CDT 8:33 PM CDT
Astronomical Twilight 6:03 AM CDT 9:02 PM CDT
Moon 5:08 AM CDT 6:12 PM CDT
Length of Visible Light 13h 00m
Length of Day
12h 10m
Tomorrow will be 2m 8s shorter.
Waning Crescent, 6% of the Moon is Illuminated
Today
Waning Crescent
Sep 24
New
Oct 1
First Quarter
Oct 8
Full
Oct 15
Last Quarter

Today's Extremes

State Highs State Lows

Community

WunderPhotos

Upload Photos

1,755,177 photos uploaded!

Nearby

Snow Depth

Station Depth Elevation
No new snow has been reported.

Earthquake Activity

City Distance Mag. Time & Date
No recent earthquake activity has been reported nearby.
Minimum magnitude displayed is 2.5.

Coastal Water Temperatures

Place Temperature
No Stations Reporting

Nearby Weather Stations